KRSN

Ruston Regional Airport

Ruston, Louisiana, USA
METAR KRSN 260415Z AUTO 18005KT 10SM CLR 23/20 A2995 RMK AO2 T02310201
Observed Flight Rules
May-26 @ 04:15 UTC (8 minutes ago) Visual Flight Rules
Wind Visibility Clouds
180° at 5 knots 10 miles
  • Clear skies
Temperatures Readings
Current 23°C / 73°F
Dewpoint 20°C / 68°F
Humidity 83%
Altimeter 29.95" Hg
Pressure 1014 hPa
Elevation 95
METAR KRSN 260415Z AUTO 18005KT 10SM CLR 23/20 A2995 RMK AO2 T02310201
Observed Flight Rules
May-26 @ 04:15 UTC
(8 minutes ago)
VFR
Wind Visibility
180° at 5 knots 10 miles
Clouds
  • Clear skies
Temperature Dewpoint
23°C / 73°F 20°C / 68°F
Humidity Altimeter Pressure
83% 29.95" Hg 1014 hPa